Time;durP1;ratioP1;P1;durP2;ratioP2;P2;SDS_P1;SDS_P2;PMS_P1;PMS_P2;Temp;Humidity;BMP_temperature;BMP_pressure;BME280_temperature;BME280_humidity;BME280_pressure;Samples;Min_cycle;Max_cycle;Signal;HPM_P1;HPM_P2
2021/12/06 00:00:38;;;;;;;18.63;7.77;;;1.90;99.90;;;;;;5007870;28;20489;-70
2021/12/06 00:03:11;;;;;;;10.00;7.13;;;1.90;99.90;;;;;;5000322;28;20980;-70
2021/12/06 00:05:38;;;;;;;12.47;7.37;;;1.80;99.90;;;;;;5011754;28;20518;-70
2021/12/06 00:08:05;;;;;;;11.83;7.90;;;1.80;99.90;;;;;;5012158;28;20512;-71
2021/12/06 00:10:32;;;;;;;13.27;8.30;;;1.80;99.90;;;;;;5022924;28;20454;-70
2021/12/06 00:13:01;;;;;;;17.63;10.87;;;1.70;99.90;;;;;;5032084;28;20457;-70
2021/12/06 00:15:31;;;;;;;13.63;9.40;;;1.70;99.90;;;;;;5007920;28;20589;-69
2021/12/06 00:17:58;;;;;;;21.10;9.93;;;1.70;99.90;;;;;;4995687;28;20841;-70
2021/12/06 00:20:25;;;;;;;18.37;12.00;;;1.70;99.90;;;;;;4997202;28;20514;-70
2021/12/06 00:22:51;;;;;;;26.00;13.67;;;1.70;99.90;;;;;;4999431;28;20455;-70
2021/12/06 00:25:18;;;;;;;24.20;13.60;;;1.70;99.90;;;;;;4997548;28;20471;-70
2021/12/06 00:27:45;;;;;;;22.80;12.77;;;1.70;99.90;;;;;;4992713;28;20495;-70
2021/12/06 00:30:16;;;;;;;19.77;12.93;;;1.70;99.90;;;;;;4999370;28;20528;-70
2021/12/06 00:32:46;;;;;;;23.43;13.50;;;1.70;99.90;;;;;;5012159;28;20545;-70
2021/12/06 00:35:19;;;;;;;31.20;13.17;;;1.70;99.90;;;;;;5008669;28;20517;-70
2021/12/06 00:37:55;;;;;;;23.17;13.67;;;1.80;99.90;;;;;;5004410;28;20460;-70
2021/12/06 00:40:23;;;;;;;28.70;12.50;;;1.80;99.90;;;;;;4992421;28;20494;-70
2021/12/06 00:42:50;;;;;;;29.53;13.63;;;1.80;99.90;;;;;;4992611;28;20454;-70
2021/12/06 00:45:19;;;;;;;18.80;12.23;;;1.90;99.90;;;;;;5065145;22;20913;-72
2021/12/06 00:47:46;;;;;;;17.57;12.60;;;1.90;99.90;;;;;;5049200;28;20452;-72
2021/12/06 00:50:15;;;;;;;20.30;12.50;;;1.90;99.90;;;;;;5050920;28;20514;-72
2021/12/06 00:52:42;;;;;;;31.23;13.80;;;1.90;99.90;;;;;;5050857;28;20444;-72
2021/12/06 00:55:10;;;;;;;19.63;12.40;;;2.00;99.90;;;;;;5046568;28;21012;-72
2021/12/06 00:57:37;;;;;;;24.23;12.13;;;2.00;99.90;;;;;;5038556;28;20470;-72
2021/12/06 01:00:09;;;;;;;17.83;13.20;;;2.00;99.90;;;;;;5049061;28;20443;-72
2021/12/06 01:02:37;;;;;;;23.43;13.63;;;2.00;99.90;;;;;;5014754;28;20493;-73
2021/12/06 01:05:05;;;;;;;24.70;14.27;;;2.00;99.90;;;;;;5045397;28;20474;-73
2021/12/06 01:07:32;;;;;;;21.83;13.73;;;2.10;99.90;;;;;;5028942;28;20453;-73
2021/12/06 01:09:59;;;;;;;20.70;13.10;;;2.10;99.90;;;;;;5036287;28;20448;-72
2021/12/06 01:12:26;;;;;;;27.27;13.60;;;2.20;99.90;;;;;;5014518;28;20954;-73
2021/12/06 01:14:53;;;;;;;24.53;14.77;;;2.20;99.90;;;;;;5029458;28;20490;-72
2021/12/06 01:17:20;;;;;;;24.03;13.63;;;2.20;99.90;;;;;;5031668;28;20453;-73
2021/12/06 01:19:48;;;;;;;24.20;13.87;;;2.20;99.90;;;;;;5030944;28;20515;-73
2021/12/06 01:22:24;;;;;;;22.40;13.93;;;2.20;99.90;;;;;;5012325;28;20544;-73
2021/12/06 01:24:55;;;;;;;22.20;13.70;;;2.20;99.90;;;;;;5048118;28;20503;-73
2021/12/06 01:27:48;;;;;;;24.50;13.10;;;2.20;99.90;;;;;;5021983;28;20540;-72
2021/12/06 01:30:30;;;;;;;29.20;15.33;;;2.30;99.90;;;;;;5044669;28;20457;-72
2021/12/06 01:33:26;;;;;;;26.83;13.27;;;2.30;99.90;;;;;;5030902;28;20535;-73
2021/12/06 01:41:20;;;;;;;22.27;13.43;;;2.30;99.90;;;;;;5023134;28;20578;-73
2021/12/06 01:44:05;;;;;;;22.33;13.13;;;2.30;99.90;;;;;;5024186;28;20489;-73
2021/12/06 01:46:31;;;;;;;22.93;13.43;;;2.30;99.90;;;;;;5032664;28;20610;-73
2021/12/06 01:48:58;;;;;;;25.97;14.63;;;2.30;99.90;;;;;;5036673;28;20453;-73
2021/12/06 01:51:27;;;;;;;23.13;13.80;;;2.30;99.90;;;;;;5030156;28;20446;-73
2021/12/06 01:53:54;;;;;;;20.40;12.87;;;2.30;99.90;;;;;;5031936;28;20461;-73
2021/12/06 01:56:20;;;;;;;19.93;12.73;;;2.40;99.90;;;;;;5033053;28;20450;-73
2021/12/06 01:58:47;;;;;;;23.20;13.47;;;2.40;99.90;;;;;;5030674;28;20874;-73
2021/12/06 02:01:14;;;;;;;19.83;12.53;;;2.40;99.90;;;;;;5029766;28;20543;-73
2021/12/06 02:03:41;;;;;;;23.03;12.37;;;2.50;99.90;;;;;;5046482;28;20476;-73
2021/12/06 02:06:08;;;;;;;23.67;12.50;;;2.40;99.90;;;;;;5029002;28;20461;-73
2021/12/06 02:08:36;;;;;;;20.50;13.77;;;2.40;99.90;;;;;;5030713;28;20479;-73
2021/12/06 02:11:03;;;;;;;19.40;12.70;;;2.40;99.90;;;;;;5045719;28;20550;-73
2021/12/06 02:13:38;;;;;;;21.47;12.37;;;2.40;99.90;;;;;;5050472;28;20463;-73
2021/12/06 02:16:06;;;;;;;23.63;12.87;;;2.40;99.90;;;;;;5032071;28;20496;-73
2021/12/06 02:18:42;;;;;;;23.73;13.70;;;2.40;99.90;;;;;;5047171;28;20591;-73
2021/12/06 02:21:18;;;;;;;23.53;13.63;;;2.40;99.90;;;;;;5014455;28;20516;-73
2021/12/06 02:23:46;;;;;;;17.53;12.50;;;2.50;99.90;;;;;;5049832;28;20476;-73
2021/12/06 02:26:14;;;;;;;25.53;14.00;;;2.50;99.90;;;;;;5042204;28;20957;-73
2021/12/06 02:28:41;;;;;;;21.03;13.67;;;2.50;99.90;;;;;;5038238;28;20448;-73
2021/12/06 02:31:08;;;;;;;22.03;13.93;;;2.50;99.90;;;;;;5044546;28;20527;-74
2021/12/06 02:33:36;;;;;;;24.23;13.77;;;2.50;99.90;;;;;;5028969;28;20474;-73
2021/12/06 02:36:03;;;;;;;21.97;13.97;;;2.50;99.90;;;;;;5022335;28;21024;-72
2021/12/06 02:38:31;;;;;;;24.80;13.80;;;2.50;99.90;;;;;;5033787;28;20445;-73
2021/12/06 02:40:58;;;;;;;26.07;14.43;;;2.50;99.90;;;;;;5034234;28;20510;-73
2021/12/06 02:43:24;;;;;;;27.67;13.73;;;2.50;99.90;;;;;;5046422;28;20613;-73
2021/12/06 02:45:51;;;;;;;22.27;13.73;;;2.50;99.90;;;;;;5042819;28;20449;-73
2021/12/06 02:48:18;;;;;;;27.83;13.80;;;2.50;99.90;;;;;;5027726;28;20450;-73
2021/12/06 02:50:48;;;;;;;23.13;13.73;;;2.60;99.90;;;;;;5035506;28;20602;-73
2021/12/06 02:53:14;;;;;;;21.90;14.50;;;2.50;99.90;;;;;;5054248;28;20447;-73
2021/12/06 02:55:43;;;;;;;21.90;13.53;;;2.60;99.90;;;;;;5034871;28;20453;-73
2021/12/06 02:58:18;;;;;;;22.80;13.23;;;2.60;99.90;;;;;;5053242;28;20444;-73
2021/12/06 03:00:48;;;;;;;25.60;14.43;;;2.50;99.90;;;;;;5037447;28;20536;-73
2021/12/06 03:03:16;;;;;;;26.70;14.53;;;2.50;99.90;;;;;;5033426;28;20538;-74
2021/12/06 03:05:43;;;;;;;22.33;13.97;;;2.50;99.90;;;;;;5032895;28;20453;-74
2021/12/06 03:08:10;;;;;;;21.30;13.87;;;2.50;99.90;;;;;;5033348;28;20464;-74
2021/12/06 03:10:37;;;;;;;26.40;14.03;;;2.60;99.90;;;;;;5043168;28;20456;-73
2021/12/06 03:13:05;;;;;;;23.83;14.13;;;2.50;99.90;;;;;;5045787;28;20452;-74
2021/12/06 03:15:32;;;;;;;26.07;14.47;;;2.50;99.90;;;;;;5032572;28;20469;-73
2021/12/06 03:17:59;;;;;;;25.80;14.03;;;2.50;99.90;;;;;;5053483;28;20456;-74
2021/12/06 03:20:26;;;;;;;27.00;13.80;;;2.50;99.90;;;;;;5053368;28;20440;-73
2021/12/06 03:22:52;;;;;;;20.20;12.73;;;2.50;99.90;;;;;;5053097;28;20488;-74
2021/12/06 03:25:19;;;;;;;25.83;13.60;;;2.40;99.90;;;;;;5035283;28;20519;-74
2021/12/06 03:27:47;;;;;;;20.17;12.37;;;2.60;99.90;;;;;;5030876;28;20446;-73
2021/12/06 03:30:15;;;;;;;22.10;13.47;;;2.40;99.90;;;;;;5031472;28;20459;-74
2021/12/06 03:32:42;;;;;;;20.80;13.33;;;2.40;99.90;;;;;;5023645;28;20449;-74
2021/12/06 03:35:11;;;;;;;22.97;12.70;;;2.40;99.90;;;;;;5032353;28;20480;-74
2021/12/06 03:37:38;;;;;;;22.70;14.50;;;2.30;99.90;;;;;;5032844;28;20448;-74
2021/12/06 03:40:06;;;;;;;25.67;13.70;;;2.40;99.90;;;;;;5039495;28;20975;-74
2021/12/06 03:42:33;;;;;;;25.13;14.07;;;2.30;99.90;;;;;;5052308;28;20892;-73
2021/12/06 03:45:00;;;;;;;25.43;15.43;;;2.40;99.90;;;;;;5052144;28;20480;-74
2021/12/06 03:47:31;;;;;;;20.23;12.87;;;2.40;99.90;;;;;;5032758;28;20457;-73
2021/12/06 03:49:58;;;;;;;23.77;12.97;;;2.40;99.90;;;;;;5044939;28;20502;-72
2021/12/06 03:52:26;;;;;;;22.57;13.97;;;2.40;99.90;;;;;;5049601;28;20452;-74
2021/12/06 03:54:53;;;;;;;23.17;12.80;;;2.40;99.90;;;;;;5039042;28;20473;-73
2021/12/06 03:57:20;;;;;;;21.50;13.70;;;2.40;99.90;;;;;;5028703;28;20453;-73
2021/12/06 03:59:48;;;;;;;21.37;13.00;;;2.40;99.90;;;;;;5030148;28;20511;-74
2021/12/06 04:02:15;;;;;;;22.20;13.60;;;2.40;99.90;;;;;;5031890;28;20485;-73
2021/12/06 04:04:44;;;;;;;22.30;12.77;;;2.40;99.90;;;;;;5033598;28;20535;-74
2021/12/06 04:07:11;;;;;;;19.90;12.77;;;2.40;99.90;;;;;;5027502;28;20507;-74
2021/12/06 04:09:38;;;;;;;24.53;13.47;;;2.40;99.90;;;;;;5038517;28;20479;-73
2021/12/06 04:12:06;;;;;;;23.27;13.40;;;2.40;99.90;;;;;;5032515;28;20499;-73
2021/12/06 04:14:33;;;;;;;25.17;13.40;;;2.40;99.90;;;;;;5032276;28;20465;-72
2021/12/06 04:17:00;;;;;;;24.43;14.37;;;2.40;99.90;;;;;;5015828;28;20501;-73
2021/12/06 04:19:27;;;;;;;19.57;12.30;;;2.40;99.90;;;;;;5031174;28;20512;-73
2021/12/06 04:21:55;;;;;;;25.43;13.30;;;2.40;99.90;;;;;;5031680;28;20508;-73
2021/12/06 04:24:22;;;;;;;24.20;13.70;;;2.40;99.90;;;;;;5032016;28;20469;-72
2021/12/06 04:26:49;;;;;;;29.67;13.57;;;2.40;99.90;;;;;;5030772;28;20453;-73
2021/12/06 04:29:16;;;;;;;22.20;12.27;;;2.40;99.90;;;;;;5033346;28;20464;-73
2021/12/06 04:31:46;;;;;;;33.67;14.00;;;2.40;99.90;;;;;;5037918;28;20536;-73
2021/12/06 04:34:13;;;;;;;21.40;13.50;;;2.40;99.90;;;;;;5016566;28;21087;-72
2021/12/06 04:36:42;;;;;;;25.50;13.37;;;2.30;99.90;;;;;;5021108;28;20858;-73
2021/12/06 04:39:13;;;;;;;18.50;12.00;;;2.40;99.90;;;;;;5027883;28;20449;-73
2021/12/06 04:41:41;;;;;;;20.13;12.87;;;2.40;99.90;;;;;;5043568;28;20506;-73
2021/12/06 04:44:09;;;;;;;27.03;12.70;;;2.40;99.90;;;;;;5030953;28;20489;-73
2021/12/06 04:46:35;;;;;;;25.30;14.47;;;2.40;99.90;;;;;;5034811;28;20468;-73
2021/12/06 04:49:02;;;;;;;21.20;12.90;;;2.40;99.90;;;;;;5051801;28;20445;-74
2021/12/06 04:51:29;;;;;;;19.03;11.73;;;2.40;99.90;;;;;;5051555;28;20452;-74
2021/12/06 04:53:56;;;;;;;25.13;13.50;;;2.40;99.90;;;;;;5038246;28;20472;-74
2021/12/06 04:56:29;;;;;;;29.30;15.00;;;2.30;99.90;;;;;;5036602;28;20464;-74
2021/12/06 04:58:59;;;;;;;27.50;14.57;;;2.30;99.90;;;;;;5049974;28;20514;-73
2021/12/06 05:01:29;;;;;;;19.10;12.50;;;2.40;99.90;;;;;;5026614;28;20522;-74
2021/12/06 05:03:58;;;;;;;25.67;12.80;;;2.40;99.90;;;;;;5038305;28;20555;-74
2021/12/06 05:06:28;;;;;;;23.30;12.60;;;2.40;99.90;;;;;;5016098;28;21038;-74
2021/12/06 05:08:59;;;;;;;22.63;13.73;;;2.40;99.90;;;;;;5033711;28;20843;-73
2021/12/06 05:11:30;;;;;;;20.80;12.90;;;2.30;99.90;;;;;;5035600;28;21015;-73
2021/12/06 05:14:00;;;;;;;22.53;12.63;;;2.30;99.90;;;;;;5037251;28;20531;-74
2021/12/06 05:16:27;;;;;;;25.20;12.97;;;2.30;99.90;;;;;;5040294;28;20467;-72
2021/12/06 05:18:54;;;;;;;23.30;13.80;;;2.40;99.90;;;;;;5050619;28;20873;-73
2021/12/06 05:21:21;;;;;;;20.83;12.57;;;2.40;99.90;;;;;;5020794;28;20454;-74
2021/12/06 05:23:48;;;;;;;20.77;12.90;;;2.40;99.90;;;;;;5026158;28;20530;-74
2021/12/06 05:26:15;;;;;;;22.67;13.90;;;2.30;99.90;;;;;;5050454;28;20827;-74
2021/12/06 05:28:45;;;;;;;24.80;14.13;;;2.30;99.90;;;;;;5033300;28;20941;-74
2021/12/06 05:31:15;;;;;;;20.73;11.47;;;2.30;99.90;;;;;;5030156;28;20458;-73
2021/12/06 05:33:43;;;;;;;23.63;12.43;;;2.30;99.90;;;;;;5030612;28;20472;-74
2021/12/06 05:36:10;;;;;;;23.67;13.77;;;2.30;99.90;;;;;;5037691;28;20496;-74
2021/12/06 05:38:38;;;;;;;23.60;13.50;;;2.30;99.90;;;;;;5011510;28;20450;-73
2021/12/06 05:41:05;;;;;;;28.33;14.87;;;2.30;99.90;;;;;;5023973;28;20515;-74
2021/12/06 05:43:31;;;;;;;26.53;14.83;;;2.30;99.90;;;;;;5040073;28;20959;-73
2021/12/06 05:46:00;;;;;;;26.17;13.77;;;2.30;99.90;;;;;;5028492;28;20932;-74
2021/12/06 05:48:27;;;;;;;28.63;13.93;;;2.30;99.90;;;;;;5031953;28;20452;-74
2021/12/06 05:50:53;;;;;;;26.37;13.80;;;2.30;99.90;;;;;;5046475;28;20515;-74
2021/12/06 05:53:21;;;;;;;26.63;13.60;;;2.30;99.90;;;;;;5025287;28;20450;-73
2021/12/06 05:55:49;;;;;;;30.23;14.10;;;2.30;99.90;;;;;;5018802;28;20450;-72
2021/12/06 05:58:19;;;;;;;25.80;13.37;;;2.30;99.90;;;;;;5043070;28;20445;-73
2021/12/06 06:00:46;;;;;;;20.80;12.57;;;2.30;99.90;;;;;;5032318;28;20454;-73
2021/12/06 06:03:15;;;;;;;21.17;12.70;;;2.40;99.90;;;;;;5027872;28;20602;-73
2021/12/06 06:05:43;;;;;;;26.13;12.83;;;2.30;99.90;;;;;;5034720;28;20453;-74
2021/12/06 06:08:10;;;;;;;22.90;13.10;;;2.40;99.90;;;;;;5048829;28;20501;-73
2021/12/06 06:10:37;;;;;;;25.60;11.70;;;2.50;99.90;;;;;;5051385;28;20479;-73
2021/12/06 06:13:07;;;;;;;21.30;13.10;;;2.40;99.90;;;;;;5035041;28;20882;-72
2021/12/06 06:15:35;;;;;;;25.80;13.20;;;2.40;99.90;;;;;;5033234;28;20477;-71
2021/12/06 06:18:03;;;;;;;21.70;12.90;;;2.40;99.90;;;;;;5045674;28;20460;-72
2021/12/06 06:20:42;;;;;;;21.30;12.97;;;2.40;99.90;;;;;;5053936;28;20456;-72
2021/12/06 06:23:09;;;;;;;22.90;12.80;;;2.40;99.90;;;;;;5049544;28;20483;-73
2021/12/06 06:25:35;;;;;;;23.73;13.37;;;2.40;99.90;;;;;;5044331;28;20531;-73
2021/12/06 06:28:03;;;;;;;22.20;13.23;;;2.40;99.90;;;;;;5047624;28;20455;-71
2021/12/06 06:30:30;;;;;;;24.70;13.63;;;2.40;99.90;;;;;;5031482;28;20449;-73
2021/12/06 06:32:57;;;;;;;25.20;14.20;;;2.40;99.90;;;;;;5023020;28;20462;-72
2021/12/06 06:35:25;;;;;;;23.40;12.13;;;2.40;99.90;;;;;;5030256;28;20527;-73
2021/12/06 06:37:53;;;;;;;25.97;12.40;;;2.40;99.90;;;;;;5034450;28;20453;-73
2021/12/06 06:40:20;;;;;;;21.43;12.57;;;2.40;99.90;;;;;;5035356;28;20499;-73
2021/12/06 06:42:48;;;;;;;21.40;12.70;;;2.40;99.90;;;;;;5044336;28;20563;-73
2021/12/06 06:45:16;;;;;;;20.20;12.00;;;2.40;99.90;;;;;;5016914;28;20845;-73
2021/12/06 06:47:43;;;;;;;19.67;12.67;;;2.40;99.90;;;;;;5015302;28;20457;-73
2021/12/06 06:50:11;;;;;;;26.10;13.83;;;2.40;99.90;;;;;;5031173;28;20882;-72
2021/12/06 06:52:38;;;;;;;25.13;13.10;;;2.40;99.90;;;;;;5030664;28;20470;-72
2021/12/06 06:55:09;;;;;;;21.73;13.60;;;2.40;99.90;;;;;;5016922;28;20470;-72
2021/12/06 06:57:36;;;;;;;20.20;11.93;;;2.40;99.90;;;;;;5024463;28;20950;-73
2021/12/06 07:00:05;;;;;;;23.00;12.23;;;2.30;99.90;;;;;;5032866;28;20496;-71
2021/12/06 07:02:31;;;;;;;21.77;12.80;;;2.30;99.90;;;;;;5023355;28;20461;-72
2021/12/06 07:04:58;;;;;;;23.43;12.30;;;2.30;99.90;;;;;;5051058;28;20472;-72
2021/12/06 07:07:25;;;;;;;22.43;11.90;;;2.40;99.90;;;;;;5024213;28;20461;-72
2021/12/06 07:09:51;;;;;;;26.07;12.63;;;2.40;99.90;;;;;;5032849;28;20865;-72
2021/12/06 07:12:19;;;;;;;24.87;12.80;;;2.40;99.90;;;;;;5053424;28;20999;-72
2021/12/06 07:14:47;;;;;;;22.53;11.60;;;2.40;99.90;;;;;;5051865;28;20529;-71
2021/12/06 07:17:15;;;;;;;21.13;10.93;;;2.40;99.90;;;;;;5033479;28;20526;-71
2021/12/06 07:19:41;;;;;;;23.60;12.03;;;2.40;99.90;;;;;;5026594;28;20461;-71
2021/12/06 07:22:08;;;;;;;21.50;11.67;;;2.40;99.90;;;;;;5012941;28;20454;-70
2021/12/06 07:24:35;;;;;;;19.80;12.10;;;2.40;99.90;;;;;;5045406;28;20488;-71
2021/12/06 07:27:03;;;;;;;20.80;11.77;;;2.40;99.90;;;;;;5031867;28;20449;-71
2021/12/06 07:29:33;;;;;;;23.17;11.80;;;2.50;99.90;;;;;;5015704;28;20512;-71
2021/12/06 07:32:01;;;;;;;23.50;12.93;;;2.90;99.90;;;;;;5037338;28;20606;-71
2021/12/06 07:34:28;;;;;;;22.20;12.23;;;2.50;99.90;;;;;;5019902;28;20484;-70
2021/12/06 07:36:54;;;;;;;20.37;11.50;;;2.60;99.90;;;;;;5026290;28;20529;-71
2021/12/06 07:39:21;;;;;;;23.53;12.20;;;2.60;99.90;;;;;;5029938;28;20456;-70
2021/12/06 07:41:48;;;;;;;19.67;11.33;;;2.60;99.90;;;;;;5051552;28;20448;-70
2021/12/06 07:44:14;;;;;;;16.77;11.10;;;2.60;99.90;;;;;;5038571;28;20480;-71
2021/12/06 07:46:42;;;;;;;27.07;12.13;;;2.60;99.90;;;;;;5027883;28;20867;-71
2021/12/06 07:49:09;;;;;;;19.33;11.23;;;2.60;99.90;;;;;;5044316;28;20506;-71
2021/12/06 07:51:36;;;;;;;23.23;12.30;;;2.60;99.90;;;;;;5027475;28;20875;-71
2021/12/06 07:54:03;;;;;;;27.90;12.30;;;2.60;99.90;;;;;;5031483;28;20989;-71
2021/12/06 07:56:29;;;;;;;27.67;12.90;;;2.70;99.90;;;;;;5042298;28;20452;-71
2021/12/06 07:58:56;;;;;;;18.67;11.90;;;2.60;99.90;;;;;;5050893;28;20522;-72
2021/12/06 08:01:23;;;;;;;22.00;12.00;;;2.70;99.90;;;;;;5029730;28;20996;-70
2021/12/06 08:03:52;;;;;;;23.93;12.33;;;2.70;99.90;;;;;;5039775;28;20600;-71
2021/12/06 08:06:19;;;;;;;22.07;11.87;;;2.80;99.90;;;;;;5030783;28;20980;-70
2021/12/06 08:08:46;;;;;;;18.83;11.90;;;2.70;99.90;;;;;;5038170;28;20488;-71
2021/12/06 08:11:15;;;;;;;28.17;13.40;;;2.80;99.90;;;;;;5034566;28;21142;-72
2021/12/06 08:13:45;;;;;;;25.00;12.47;;;2.80;99.90;;;;;;5031301;28;20477;-70
2021/12/06 08:16:15;;;;;;;22.17;12.20;;;2.90;99.90;;;;;;5027731;28;20593;-70
2021/12/06 08:18:44;;;;;;;26.07;11.67;;;3.00;99.90;;;;;;4998812;28;20533;-70
2021/12/06 08:21:13;;;;;;;25.67;13.47;;;2.90;99.90;;;;;;4996152;28;20538;-71
2021/12/06 08:23:40;;;;;;;25.43;13.60;;;2.90;99.90;;;;;;5000414;28;20501;-68
2021/12/06 08:26:09;;;;;;;22.37;13.63;;;2.80;99.90;;;;;;4990677;28;20458;-75
2021/12/06 08:28:36;;;;;;;27.87;13.90;;;2.80;99.90;;;;;;4990197;28;20447;-75
2021/12/06 08:31:03;;;;;;;26.43;13.60;;;2.80;99.90;;;;;;4990833;28;20505;-76
2021/12/06 08:33:30;;;;;;;24.20;13.17;;;2.80;99.90;;;;;;4990436;28;20955;-76
2021/12/06 08:35:58;;;;;;;27.17;13.50;;;2.70;99.90;;;;;;4990983;28;20828;-75
2021/12/06 08:38:30;;;;;;;23.80;13.30;;;2.80;99.90;;;;;;4990106;28;20498;-75
2021/12/06 08:40:58;;;;;;;19.33;12.57;;;2.80;99.90;;;;;;4996039;28;20510;-79
2021/12/06 08:43:25;;;;;;;25.13;13.30;;;2.80;99.90;;;;;;4994240;28;20483;-78
2021/12/06 08:45:55;;;;;;;28.83;13.70;;;2.80;99.90;;;;;;4997245;28;20462;-78
2021/12/06 08:48:24;;;;;;;22.57;12.87;;;2.90;99.90;;;;;;4995147;28;20463;-74
2021/12/06 08:50:52;;;;;;;27.00;14.40;;;2.90;99.90;;;;;;4990786;28;20509;-75
2021/12/06 08:53:19;;;;;;;26.33;14.37;;;2.90;99.90;;;;;;4991255;28;20455;-77
2021/12/06 08:55:47;;;;;;;24.57;13.67;;;2.90;99.90;;;;;;4991727;28;20463;-76
2021/12/06 08:58:14;;;;;;;23.30;13.40;;;2.90;99.90;;;;;;5003506;28;20514;-76
2021/12/06 09:00:40;;;;;;;20.73;12.50;;;2.90;99.90;;;;;;4992215;28;20456;-72
2021/12/06 09:03:07;;;;;;;20.87;12.13;;;3.00;99.90;;;;;;4995561;28;20459;-73
2021/12/06 09:05:37;;;;;;;19.53;12.40;;;3.00;99.90;;;;;;4991225;28;20481;-72
2021/12/06 09:08:04;;;;;;;21.97;12.27;;;3.00;99.90;;;;;;4989311;28;21078;-73
2021/12/06 09:10:32;;;;;;;24.07;14.40;;;3.00;99.90;;;;;;4991816;28;20451;-72
2021/12/06 09:13:01;;;;;;;28.67;14.67;;;3.30;99.90;;;;;;4990223;28;20624;-72
2021/12/06 09:15:28;;;;;;;27.80;12.43;;;3.60;99.90;;;;;;4990312;28;20479;-73
2021/12/06 09:17:56;;;;;;;18.47;12.30;;;4.00;99.90;;;;;;4990283;28;20459;-72
2021/12/06 09:20:27;;;;;;;18.77;11.80;;;4.20;99.90;;;;;;4989378;28;20862;-72
2021/12/06 09:22:54;;;;;;;18.03;11.23;;;4.40;99.90;;;;;;4994490;28;20454;-72
2021/12/06 09:25:21;;;;;;;18.03;10.80;;;4.70;99.90;;;;;;5010362;28;20874;-73
2021/12/06 09:27:48;;;;;;;21.70;10.80;;;5.00;99.90;;;;;;5004121;28;20455;-73
2021/12/06 09:30:21;;;;;;;19.47;10.80;;;5.20;99.90;;;;;;4995144;28;20462;-73
2021/12/06 09:32:48;;;;;;;16.07;10.63;;;5.50;99.90;;;;;;4980754;28;20463;-73
2021/12/06 09:35:21;;;;;;;18.27;11.30;;;5.70;99.90;;;;;;4992021;28;20519;-70
2021/12/06 09:37:48;;;;;;;21.30;12.07;;;5.90;99.90;;;;;;4999407;28;20579;-70
2021/12/06 09:40:16;;;;;;;16.87;10.23;;;6.00;99.90;;;;;;4994992;28;20474;-71
2021/12/06 09:42:43;;;;;;;17.30;10.63;;;6.10;99.90;;;;;;5010361;28;20461;-71
2021/12/06 09:45:13;;;;;;;16.40;11.07;;;6.20;99.90;;;;;;5002617;28;20491;-70
2021/12/06 09:47:45;;;;;;;22.30;10.47;;;6.30;99.90;;;;;;4989492;28;20455;-71
2021/12/06 09:50:12;;;;;;;18.20;10.83;;;6.30;99.90;;;;;;4983833;28;20840;-71
2021/12/06 09:52:39;;;;;;;17.53;11.37;;;6.40;99.90;;;;;;4988090;28;21007;-74
2021/12/06 09:55:06;;;;;;;20.50;11.77;;;6.60;99.90;;;;;;4997977;28;20524;-70
2021/12/06 09:57:33;;;;;;;18.23;10.83;;;6.50;99.90;;;;;;5008985;28;20896;-70
2021/12/06 09:59:59;;;;;;;19.33;12.03;;;6.50;99.90;;;;;;5005929;28;20455;-70
2021/12/06 10:02:27;;;;;;;17.50;11.90;;;6.10;99.90;;;;;;4996745;28;20478;-70
2021/12/06 10:04:55;;;;;;;20.50;12.70;;;5.90;99.90;;;;;;4995870;28;20491;-70
2021/12/06 10:07:24;;;;;;;23.00;11.40;;;6.10;99.90;;;;;;4993879;28;20462;-70
2021/12/06 10:09:51;;;;;;;16.07;11.70;;;6.40;99.90;;;;;;5007493;28;21005;-71
2021/12/06 10:12:19;;;;;;;16.63;11.37;;;6.50;99.90;;;;;;4992571;28;20950;-70
2021/12/06 10:14:47;;;;;;;13.43;10.43;;;6.60;99.90;;;;;;4989913;28;20530;-71
2021/12/06 10:17:16;;;;;;;15.10;11.30;;;6.60;99.90;;;;;;4991380;28;20534;-70
2021/12/06 10:19:44;;;;;;;17.00;10.90;;;6.80;99.90;;;;;;5001019;28;20454;-71
2021/12/06 10:22:14;;;;;;;17.63;11.30;;;7.10;99.90;;;;;;5006777;28;21355;-72
2021/12/06 10:24:42;;;;;;;16.53;11.70;;;7.40;99.90;;;;;;4993890;28;21231;-70
2021/12/06 10:27:11;;;;;;;17.30;12.13;;;7.60;99.90;;;;;;4993430;28;20462;-71
2021/12/06 10:29:44;;;;;;;16.30;10.87;;;7.50;99.90;;;;;;4995152;28;20455;-70
2021/12/06 10:32:17;;;;;;;17.37;11.63;;;7.40;99.90;;;;;;4990365;28;20461;-72
2021/12/06 10:34:47;;;;;;;14.73;11.23;;;7.20;99.90;;;;;;4995781;28;20482;-70
2021/12/06 10:37:34;;;;;;;16.40;11.57;;;7.20;99.90;;;;;;4989098;28;20529;-71
2021/12/06 10:40:02;;;;;;;15.27;10.83;;;7.50;99.90;;;;;;4990385;28;20545;-70
2021/12/06 10:42:34;;;;;;;16.30;10.90;;;7.70;99.90;;;;;;4990506;28;20450;-71
2021/12/06 10:45:05;;;;;;;22.10;11.97;;;7.50;99.90;;;;;;4988467;28;20549;-70
2021/12/06 10:47:32;;;;;;;19.30;12.47;;;7.50;99.90;;;;;;4989286;28;20463;-72
2021/12/06 10:50:12;;;;;;;17.97;12.70;;;7.40;99.90;;;;;;4989850;28;20459;-71
2021/12/06 10:52:50;;;;;;;17.40;12.10;;;7.40;99.90;;;;;;4991853;28;20958;-71
2021/12/06 10:55:18;;;;;;;15.30;11.20;;;7.40;99.90;;;;;;5004053;28;20728;-71
2021/12/06 10:57:50;;;;;;;17.90;11.23;;;7.50;99.90;;;;;;5005856;28;20455;-71
2021/12/06 11:00:49;;;;;;;18.40;12.50;;;7.40;99.90;;;;;;4999165;28;20455;-71
2021/12/06 11:03:26;;;;;;;18.80;11.73;;;7.50;99.90;;;;;;4932494;29;20533;-71
2021/12/06 11:05:55;;;;;;;16.03;10.77;;;7.60;99.90;;;;;;4982642;28;20498;-69
2021/12/06 11:08:24;;;;;;;17.30;10.53;;;7.60;99.90;;;;;;4983963;28;20458;-70
2021/12/06 11:10:54;;;;;;;15.10;11.13;;;7.70;99.90;;;;;;4995262;28;20486;-71
2021/12/06 11:13:24;;;;;;;14.20;10.23;;;7.60;99.90;;;;;;5001570;28;20450;-71
2021/12/06 11:15:58;;;;;;;21.20;10.80;;;7.50;99.90;;;;;;5001806;28;20454;-70
2021/12/06 11:18:39;;;;;;;17.07;11.13;;;7.30;99.90;;;;;;5000152;28;20461;-70
2021/12/06 11:21:14;;;;;;;15.90;11.40;;;7.20;99.90;;;;;;5004885;28;20517;-69
2021/12/06 11:26:36;;;;;;;18.77;12.73;;;7.10;99.90;;;;;;5078282;27;20565;-70
2021/12/06 11:29:09;;;;;;;16.67;11.80;;;7.10;99.90;;;;;;5087007;28;20474;-73
2021/12/06 11:31:36;;;;;;;17.60;12.97;;;7.00;99.90;;;;;;5087213;28;20450;-73
2021/12/06 11:34:06;;;;;;;22.50;13.50;;;7.00;99.90;;;;;;5086606;28;22052;-72
2021/12/06 11:36:33;;;;;;;24.67;13.70;;;7.00;99.90;;;;;;5082390;28;20461;-71
2021/12/06 11:39:05;;;;;;;20.60;13.30;;;7.10;99.90;;;;;;5067256;28;20521;-70
2021/12/06 11:41:34;;;;;;;32.50;13.57;;;7.10;99.90;;;;;;5077963;28;20450;-72
2021/12/06 11:44:15;;;;;;;19.50;14.17;;;7.00;99.90;;;;;;5082434;28;20470;-73
2021/12/06 11:46:41;;;;;;;26.03;13.97;;;6.80;99.90;;;;;;5078978;28;20447;-72
2021/12/06 11:49:17;;;;;;;19.20;14.53;;;6.80;99.90;;;;;;5077751;28;20504;-72
2021/12/06 11:51:44;;;;;;;26.30;15.23;;;6.50;99.90;;;;;;5081748;28;20489;-72
2021/12/06 11:54:10;;;;;;;23.10;14.70;;;6.40;99.90;;;;;;5081769;28;20532;-74
2021/12/06 11:56:44;;;;;;;20.13;14.03;;;6.30;99.90;;;;;;5080377;28;20455;-72
2021/12/06 11:59:12;;;;;;;25.50;15.03;;;6.30;99.90;;;;;;5066622;28;20539;-72
2021/12/06 12:01:41;;;;;;;25.70;15.57;;;5.80;99.90;;;;;;5075293;28;20451;-71
2021/12/06 12:04:10;;;;;;;23.60;15.80;;;5.60;99.90;;;;;;5084019;28;20470;-71
2021/12/06 12:06:40;;;;;;;25.83;16.13;;;5.60;99.90;;;;;;5075098;28;20491;-72
2021/12/06 12:09:10;;;;;;;28.93;17.93;;;5.30;99.90;;;;;;5066859;28;20509;-72
2021/12/06 12:12:03;;;;;;;27.43;17.57;;;5.20;99.90;;;;;;5069664;28;20467;-72
2021/12/06 12:14:34;;;;;;;27.97;17.57;;;5.00;99.90;;;;;;5067737;28;20479;-72
2021/12/06 12:17:04;;;;;;;26.83;16.40;;;4.90;99.90;;;;;;5079219;28;20611;-73
2021/12/06 12:19:31;;;;;;;26.87;16.73;;;4.70;99.90;;;;;;5077079;28;20829;-72
2021/12/06 12:21:57;;;;;;;27.60;16.40;;;4.60;99.90;;;;;;5069316;28;20451;-72
2021/12/06 12:24:24;;;;;;;33.80;17.93;;;4.40;99.90;;;;;;5080067;28;21039;-71
2021/12/06 12:27:01;;;;;;;30.87;17.40;;;4.30;99.90;;;;;;5072460;28;20916;-73
2021/12/06 12:29:30;;;;;;;31.37;18.70;;;4.20;99.90;;;;;;5085930;28;20458;-72
2021/12/06 12:32:00;;;;;;;28.30;18.00;;;4.10;99.90;;;;;;5067805;28;20530;-73
2021/12/06 12:34:28;;;;;;;28.67;18.63;;;4.00;99.90;;;;;;5094066;28;20474;-73
2021/12/06 12:36:55;;;;;;;34.60;20.60;;;4.00;99.90;;;;;;5071459;28;20987;-72
2021/12/06 12:39:24;;;;;;;34.37;20.40;;;4.00;99.90;;;;;;5059780;28;20505;-73
2021/12/06 12:41:54;;;;;;;36.80;18.70;;;4.10;99.90;;;;;;5059201;28;20602;-73
2021/12/06 12:44:21;;;;;;;34.27;19.63;;;4.20;99.90;;;;;;5064576;28;20521;-71
2021/12/06 12:46:54;;;;;;;31.30;19.67;;;4.20;99.90;;;;;;5066464;28;20567;-73
2021/12/06 12:49:24;;;;;;;36.00;19.70;;;4.20;99.90;;;;;;5059286;28;20547;-72
2021/12/06 12:51:54;;;;;;;41.93;21.13;;;4.20;99.90;;;;;;5059834;28;20514;-72
2021/12/06 12:54:25;;;;;;;33.33;20.57;;;4.20;99.90;;;;;;5064112;28;20499;-72